Hagars Grove, Missouri
Current Conditions -  °F | °C
As of 11:55 PM on Saturday 22 Nov 2014 (Local Time) from KIRK Reporting Station
Overcast Overcast  
Wind Chill: 53°   Ceiling: 1000
Heat Index: 53°   Visibility: 10mi
Dew Point: 50°   Wind: 13mph
Humidity: 89%   Direction: 190°S
Pressure: 29.74"   Gusts: NA
Location:  39.735°N, 92.239°W
Report Text: KIRK 230555Z AUTO 19011KT 10SM OVC010 12/10 A2974 RMK AO2 SLP073 T01170100 10139 20100 401500044 58008
Loading
Personal Weather Stations






























Interactive Weather Map New forecast layout! Learn more

10-Day Weather Forecast

Advertisements
Track Severe Weather on mobile